Time;durP1;ratioP1;P1;durP2;ratioP2;P2;SDS_P1;SDS_P2;PMS_P1;PMS_P2;Temp;Humidity;BMP_temperature;BMP_pressure;BME280_temperature;BME280_humidity;BME280_pressure;Samples;Min_cycle;Max_cycle;Signal;HPM_P1;HPM_P2
2021/11/06 00:01:31;;;;;;;0.10;0.10;;;7.10;99.90;;;;;;5053451;28;20102;-84
2021/11/06 00:03:58;;;;;;;0.10;0.10;;;7.20;99.90;;;;;;5086320;28;20045;-84
2021/11/06 00:06:24;;;;;;;0.00;0.00;;;7.20;99.90;;;;;;5085870;28;20056;-82
2021/11/06 00:08:51;;;;;;;0.10;0.10;;;7.20;99.90;;;;;;5053265;28;20119;-83
2021/11/06 00:11:18;;;;;;;0.00;0.00;;;7.20;99.90;;;;;;5086113;28;20396;-84
2021/11/06 00:13:44;;;;;;;0.05;0.05;;;7.30;99.90;;;;;;5086193;28;20033;-81
2021/11/06 00:16:11;;;;;;;0.00;0.00;;;7.30;99.90;;;;;;5069211;28;20045;-82
2021/11/06 00:18:38;;;;;;;0.10;0.10;;;7.30;99.90;;;;;;5053137;28;20077;-85
2021/11/06 00:21:04;;;;;;;0.10;0.10;;;7.30;99.90;;;;;;5086102;28;20036;-82
2021/11/06 00:23:31;;;;;;;0.10;0.10;;;7.30;99.90;;;;;;5119455;28;20098;-82
2021/11/06 00:25:58;;;;;;;0.10;0.10;;;7.30;99.90;;;;;;5085913;28;20413;-82
2021/11/06 00:28:25;;;;;;;0.10;0.10;;;7.30;99.90;;;;;;5053284;28;20037;-82
2021/11/06 00:30:52;;;;;;;0.08;0.08;;;7.30;99.90;;;;;;5057301;28;20433;-84
2021/11/06 00:33:18;;;;;;;0.10;0.10;;;7.30;99.90;;;;;;5073191;28;20040;-84
2021/11/06 00:35:45;;;;;;;0.10;0.10;;;7.40;99.90;;;;;;5056902;28;20040;-81
2021/11/06 00:38:12;;;;;;;0.10;0.10;;;7.40;99.90;;;;;;5090037;28;20119;-84
2021/11/06 00:40:38;;;;;;;0.10;0.10;;;7.40;99.90;;;;;;5089871;28;20041;-82
2021/11/06 00:43:05;;;;;;;0.00;0.00;;;7.50;99.90;;;;;;5082787;28;20032;-85
2021/11/06 00:45:32;;;;;;;0.10;0.10;;;7.50;99.90;;;;;;5101325;28;20043;-85
2021/11/06 00:47:58;;;;;;;0.10;0.10;;;7.50;99.90;;;;;;5126710;28;20094;-84
2021/11/06 00:50:25;;;;;;;0.00;0.00;;;7.60;99.90;;;;;;5092938;28;20048;-85
2021/11/06 00:52:53;;;;;;;0.10;0.10;;;7.60;99.90;;;;;;5109862;28;20416;-82
2021/11/06 00:55:20;;;;;;;0.10;0.10;;;7.60;99.90;;;;;;5109102;28;20462;-85
2021/11/06 00:57:48;;;;;;;0.10;0.10;;;7.70;99.90;;;;;;5126979;28;20040;-81
2021/11/06 01:00:17;;;;;;;0.10;0.10;;;7.80;99.90;;;;;;5109179;28;20036;-82
2021/11/06 01:02:44;;;;;;;0.10;0.10;;;7.60;99.90;;;;;;5126568;28;20036;-84
2021/11/06 01:05:13;;;;;;;0.10;0.10;;;7.70;99.90;;;;;;5109219;28;20822;-84
2021/11/06 01:07:41;;;;;;;0.10;0.10;;;7.60;99.90;;;;;;5126271;28;20501;-82
2021/11/06 01:10:10;;;;;;;0.03;0.03;;;7.60;99.90;;;;;;5092790;28;20098;-85
2021/11/06 01:12:37;;;;;;;0.08;0.08;;;7.60;99.90;;;;;;5092513;28;20124;-82
2021/11/06 01:15:07;;;;;;;0.10;0.10;;;7.60;99.90;;;;;;5076023;28;20040;-82
2021/11/06 01:17:33;;;;;;;0.00;0.00;;;7.50;99.90;;;;;;5092291;28;20044;-84
2021/11/06 01:20:00;;;;;;;0.00;0.00;;;7.50;99.90;;;;;;5092683;28;20050;-82
2021/11/06 01:22:27;;;;;;;0.10;0.10;;;7.50;99.90;;;;;;5075461;28;20461;-85
2021/11/06 01:24:54;;;;;;;0.00;0.00;;;7.50;99.90;;;;;;5059308;28;20082;-82
2021/11/06 01:27:20;;;;;;;0.10;0.10;;;7.50;99.90;;;;;;5075628;28;20044;-84
2021/11/06 01:29:48;;;;;;;0.10;0.10;;;7.50;99.90;;;;;;5059272;28;20041;-81
2021/11/06 01:32:14;;;;;;;0.10;0.10;;;7.50;99.90;;;;;;5075838;28;20032;-82
2021/11/06 01:34:41;;;;;;;0.10;0.10;;;7.40;99.90;;;;;;5075866;28;20040;-84
2021/11/06 01:37:08;;;;;;;0.10;0.10;;;7.50;99.90;;;;;;5091990;28;20047;-84
2021/11/06 01:39:35;;;;;;;0.10;0.10;;;7.40;99.90;;;;;;5058527;28;20036;-82
2021/11/06 01:42:02;;;;;;;0.55;0.55;;;7.50;99.90;;;;;;5075078;28;20044;-84
2021/11/06 01:44:30;;;;;;;0.00;0.00;;;7.40;99.90;;;;;;5091929;28;20040;-84
2021/11/06 01:46:57;;;;;;;0.10;0.10;;;7.50;99.90;;;;;;5108840;28;20411;-84
2021/11/06 01:49:24;;;;;;;0.10;0.10;;;7.50;99.90;;;;;;5108438;28;20048;-84
2021/11/06 01:51:52;;;;;;;0.10;0.10;;;7.50;99.90;;;;;;5075481;28;20131;-84
2021/11/06 01:54:23;;;;;;;0.10;0.10;;;7.50;99.90;;;;;;5075204;28;20101;-84
2021/11/06 01:56:51;;;;;;;0.10;0.10;;;7.50;99.90;;;;;;5092403;28;20092;-84
2021/11/06 01:59:17;;;;;;;0.00;0.00;;;7.50;99.90;;;;;;5108465;28;20040;-82
2021/11/06 02:01:46;;;;;;;0.10;0.10;;;7.50;99.90;;;;;;5059279;28;20127;-84
2021/11/06 02:04:13;;;;;;;0.10;0.10;;;7.50;99.90;;;;;;5092071;28;20046;-84
2021/11/06 02:06:40;;;;;;;0.08;0.08;;;7.50;99.90;;;;;;5091463;28;20036;-82
2021/11/06 02:09:07;;;;;;;0.10;0.10;;;7.50;99.90;;;;;;5075334;28;20127;-84
2021/11/06 02:11:35;;;;;;;0.20;0.20;;;7.50;99.90;;;;;;5074937;28;20032;-82
2021/11/06 02:14:03;;;;;;;0.10;0.10;;;7.50;99.90;;;;;;5108508;28;20062;-85
2021/11/06 02:16:30;;;;;;;0.10;0.10;;;7.50;99.90;;;;;;5090914;28;20044;-84
2021/11/06 02:18:58;;;;;;;0.10;0.10;;;7.50;99.90;;;;;;5091275;28;20040;-81
2021/11/06 02:21:25;;;;;;;0.03;0.03;;;7.50;99.90;;;;;;5091039;28;20749;-84
2021/11/06 02:23:52;;;;;;;0.05;0.05;;;7.60;99.90;;;;;;5058523;28;20047;-85
2021/11/06 02:26:20;;;;;;;0.00;0.00;;;7.50;99.90;;;;;;5107947;28;20083;-84
2021/11/06 02:28:53;;;;;;;0.00;0.00;;;7.60;99.90;;;;;;5108081;28;20121;-84
2021/11/06 02:31:21;;;;;;;0.10;0.10;;;7.60;99.90;;;;;;5091285;28;20515;-82
2021/11/06 02:33:49;;;;;;;0.10;0.10;;;7.60;99.90;;;;;;5074560;28;20086;-82
2021/11/06 02:36:17;;;;;;;0.10;0.10;;;7.70;99.90;;;;;;5074682;28;20162;-84
2021/11/06 02:38:44;;;;;;;0.10;0.10;;;7.70;99.90;;;;;;5091110;28;20051;-82
2021/11/06 02:41:10;;;;;;;0.10;0.10;;;7.70;99.90;;;;;;5057955;28;20131;-82
2021/11/06 02:43:37;;;;;;;0.08;0.08;;;7.70;99.90;;;;;;5074395;28;20043;-85
2021/11/06 02:46:04;;;;;;;0.00;0.00;;;7.70;99.90;;;;;;5090808;28;20052;-82
2021/11/06 02:48:31;;;;;;;0.00;0.00;;;7.70;99.90;;;;;;5074286;28;20047;-84
2021/11/06 02:50:57;;;;;;;0.00;0.00;;;7.70;99.90;;;;;;5057799;28;20040;-82
2021/11/06 02:53:24;;;;;;;0.10;0.10;;;7.70;99.90;;;;;;5090298;28;20040;-83
2021/11/06 02:55:51;;;;;;;0.00;0.00;;;7.70;99.90;;;;;;5057541;28;20091;-82
2021/11/06 02:58:19;;;;;;;0.10;0.10;;;7.70;99.90;;;;;;5074172;28;20493;-84
2021/11/06 03:00:45;;;;;;;0.10;0.10;;;7.70;99.90;;;;;;5073260;28;20493;-84
2021/11/06 03:03:12;;;;;;;0.05;0.05;;;7.70;99.90;;;;;;5103612;28;20044;-84
2021/11/06 03:05:39;;;;;;;0.10;0.10;;;7.70;99.90;;;;;;5097453;28;20187;-82
2021/11/06 03:08:06;;;;;;;0.10;0.10;;;7.80;99.90;;;;;;5087147;28;20037;-82
2021/11/06 03:10:32;;;;;;;0.00;0.00;;;7.70;99.90;;;;;;5086895;28;20036;-84
2021/11/06 03:13:01;;;;;;;0.00;0.00;;;7.70;99.90;;;;;;5087060;28;20041;-82
2021/11/06 03:15:27;;;;;;;0.10;0.10;;;7.80;99.90;;;;;;5103042;28;20041;-84
2021/11/06 03:17:54;;;;;;;0.10;0.10;;;7.70;99.90;;;;;;5069987;28;20045;-85
2021/11/06 03:20:21;;;;;;;0.00;0.00;;;7.80;99.90;;;;;;5053949;28;20104;-85
2021/11/06 03:22:51;;;;;;;0.68;0.20;;;7.80;99.90;;;;;;5053712;28;20505;-82
2021/11/06 03:25:18;;;;;;;0.08;0.08;;;7.80;99.90;;;;;;5104102;28;20088;-82
2021/11/06 03:27:45;;;;;;;0.10;0.10;;;7.80;99.90;;;;;;5053347;28;20720;-82
2021/11/06 03:30:12;;;;;;;0.10;0.10;;;7.80;99.90;;;;;;5086575;28;20048;-82
2021/11/06 03:32:38;;;;;;;0.00;0.00;;;7.90;99.90;;;;;;5086044;28;20067;-84
2021/11/06 03:35:06;;;;;;;0.00;0.00;;;7.80;99.90;;;;;;5069821;28;20041;-84
2021/11/06 03:37:34;;;;;;;0.00;0.00;;;7.90;99.90;;;;;;5086318;28;20037;-84
2021/11/06 03:40:01;;;;;;;0.10;0.10;;;7.80;99.90;;;;;;5103227;28;20053;-84
2021/11/06 03:42:27;;;;;;;0.10;0.10;;;8.30;99.90;;;;;;5053689;28;20040;-82
2021/11/06 03:44:54;;;;;;;0.10;0.10;;;7.90;99.90;;;;;;5086039;28;20036;-81
2021/11/06 03:47:21;;;;;;;0.10;0.10;;;7.80;99.90;;;;;;5053288;28;20037;-82
2021/11/06 03:49:47;;;;;;;0.00;0.00;;;7.90;99.90;;;;;;5053148;28;20037;-84
2021/11/06 03:52:14;;;;;;;0.10;0.10;;;7.90;99.90;;;;;;5086198;28;20044;-85
2021/11/06 03:54:42;;;;;;;0.10;0.10;;;8.00;99.90;;;;;;5069377;28;20075;-82
2021/11/06 03:57:09;;;;;;;0.10;0.10;;;7.90;99.90;;;;;;5053247;28;20135;-84
2021/11/06 03:59:35;;;;;;;0.10;0.10;;;8.00;99.90;;;;;;5086050;28;20534;-84
2021/11/06 04:02:03;;;;;;;0.10;0.10;;;8.00;99.90;;;;;;5053095;28;20045;-84
2021/11/06 04:04:29;;;;;;;0.10;0.10;;;8.00;99.90;;;;;;5069570;28;20041;-84
2021/11/06 04:06:56;;;;;;;0.00;0.00;;;8.00;99.90;;;;;;5069171;28;20044;-82
2021/11/06 04:09:23;;;;;;;0.00;0.00;;;8.00;99.90;;;;;;5086230;28;20040;-84
2021/11/06 04:11:50;;;;;;;0.00;0.00;;;8.00;99.90;;;;;;5085652;28;20052;-84
2021/11/06 04:14:17;;;;;;;0.10;0.10;;;8.00;99.90;;;;;;5086164;28;20420;-81
2021/11/06 04:16:44;;;;;;;0.28;0.13;;;8.00;99.90;;;;;;5069335;28;20040;-85
2021/11/06 04:19:11;;;;;;;0.10;0.10;;;8.00;99.90;;;;;;5069559;28;20478;-84
2021/11/06 04:21:39;;;;;;;0.20;0.20;;;8.00;99.90;;;;;;5085768;28;20041;-84
2021/11/06 04:24:06;;;;;;;0.10;0.10;;;8.00;99.90;;;;;;5053075;28;20045;-82
2021/11/06 04:26:33;;;;;;;0.00;0.00;;;8.20;99.90;;;;;;5086200;28;20040;-84
2021/11/06 04:29:00;;;;;;;0.10;0.10;;;8.00;99.90;;;;;;5102312;28;20876;-82
2021/11/06 04:31:26;;;;;;;0.00;0.00;;;8.00;99.90;;;;;;5085900;28;20124;-84
2021/11/06 04:33:53;;;;;;;0.10;0.10;;;8.10;99.90;;;;;;5068976;28;20098;-82
2021/11/06 04:36:20;;;;;;;0.10;0.10;;;8.00;99.90;;;;;;5069282;28;20036;-82
2021/11/06 04:38:46;;;;;;;0.05;0.05;;;8.00;99.90;;;;;;5085754;28;20059;-82
2021/11/06 04:41:13;;;;;;;0.00;0.00;;;8.00;99.90;;;;;;5069207;28;20067;-82
2021/11/06 04:43:40;;;;;;;0.10;0.10;;;8.00;99.90;;;;;;5052648;28;20056;-84
2021/11/06 04:46:07;;;;;;;0.00;0.00;;;8.00;99.90;;;;;;5069191;28;20494;-82
2021/11/06 04:48:34;;;;;;;0.10;0.10;;;8.00;99.90;;;;;;5102324;28;20037;-82
2021/11/06 04:51:00;;;;;;;0.10;0.10;;;8.10;99.90;;;;;;5118956;28;20048;-82
2021/11/06 04:53:27;;;;;;;0.03;0.03;;;8.10;99.90;;;;;;5085553;28;20036;-85
2021/11/06 04:55:54;;;;;;;0.00;0.00;;;8.10;99.90;;;;;;5101898;28;20103;-84
2021/11/06 04:58:21;;;;;;;0.10;0.10;;;8.20;99.90;;;;;;5052646;28;20045;-82
2021/11/06 05:00:47;;;;;;;0.00;0.00;;;8.10;99.90;;;;;;5102043;28;20040;-85
2021/11/06 05:03:14;;;;;;;0.00;0.00;;;8.10;99.90;;;;;;5085628;28;20048;-82
2021/11/06 05:05:42;;;;;;;0.00;0.00;;;8.10;99.90;;;;;;5068717;28;20044;-84
2021/11/06 05:08:10;;;;;;;0.10;0.10;;;8.10;99.90;;;;;;5101854;28;20091;-82
2021/11/06 05:10:38;;;;;;;0.10;0.10;;;8.10;99.90;;;;;;5085551;28;20186;-82
2021/11/06 05:13:05;;;;;;;0.00;0.00;;;8.10;99.90;;;;;;5085756;28;20037;-84
2021/11/06 05:15:32;;;;;;;0.20;0.20;;;8.30;99.90;;;;;;5086196;28;20467;-84
2021/11/06 05:17:59;;;;;;;0.08;0.08;;;8.10;99.90;;;;;;5056060;28;20413;-84
2021/11/06 05:20:25;;;;;;;0.10;0.10;;;8.10;99.90;;;;;;5072640;28;20049;-82
2021/11/06 05:22:52;;;;;;;0.00;0.00;;;8.20;99.90;;;;;;5088685;28;20045;-84
2021/11/06 05:25:19;;;;;;;0.10;0.10;;;8.20;99.90;;;;;;5072379;28;20048;-84
2021/11/06 05:27:46;;;;;;;0.00;0.00;;;8.20;99.90;;;;;;5071933;28;20041;-82
2021/11/06 05:30:14;;;;;;;0.00;0.00;;;8.20;99.90;;;;;;5089030;28;20120;-82
2021/11/06 05:32:41;;;;;;;0.10;0.10;;;8.20;99.90;;;;;;5072228;28;20067;-82
2021/11/06 05:35:10;;;;;;;0.00;0.00;;;8.20;99.90;;;;;;5055362;28;20037;-84
2021/11/06 05:37:37;;;;;;;0.00;0.00;;;8.20;99.90;;;;;;5105445;28;20051;-84
2021/11/06 05:40:06;;;;;;;0.00;0.00;;;8.20;99.90;;;;;;5088244;28;20101;-84
2021/11/06 05:42:33;;;;;;;0.00;0.00;;;8.20;99.90;;;;;;5088669;28;20489;-82
2021/11/06 05:45:00;;;;;;;0.00;0.00;;;8.20;99.90;;;;;;5088081;28;20047;-82
2021/11/06 05:47:27;;;;;;;0.08;0.08;;;8.20;99.90;;;;;;5088530;28;20033;-84
2021/11/06 05:49:54;;;;;;;0.10;0.10;;;8.40;99.90;;;;;;5088248;28;20515;-84
2021/11/06 05:52:20;;;;;;;0.00;0.00;;;8.20;99.90;;;;;;5088629;28;20103;-82
2021/11/06 05:54:47;;;;;;;0.00;0.00;;;8.20;99.90;;;;;;5088649;28;20036;-84
2021/11/06 05:57:14;;;;;;;0.10;0.10;;;8.10;99.90;;;;;;5071744;28;20521;-84
2021/11/06 05:59:41;;;;;;;0.10;0.10;;;8.10;99.90;;;;;;5088471;28;20043;-85
2021/11/06 06:02:07;;;;;;;0.00;0.00;;;8.20;99.90;;;;;;5088344;28;20044;-82
2021/11/06 06:04:34;;;;;;;0.05;0.05;;;8.20;99.90;;;;;;5088483;28;20421;-84
2021/11/06 06:07:03;;;;;;;0.10;0.10;;;8.20;99.90;;;;;;5071631;28;20110;-82
2021/11/06 06:09:30;;;;;;;0.00;0.00;;;8.20;99.90;;;;;;5088351;28;20040;-84
2021/11/06 06:11:56;;;;;;;0.10;0.10;;;8.20;99.90;;;;;;5087973;28;20090;-82
2021/11/06 06:14:23;;;;;;;0.08;0.08;;;8.10;99.90;;;;;;5055026;28;20048;-82
2021/11/06 06:16:50;;;;;;;0.00;0.00;;;8.20;99.90;;;;;;5054531;28;20044;-83
2021/11/06 06:19:17;;;;;;;0.00;0.00;;;8.10;99.90;;;;;;5088220;28;20041;-84
2021/11/06 06:21:43;;;;;;;0.00;0.00;;;8.10;99.90;;;;;;5055033;28;20045;-84
2021/11/06 06:24:10;;;;;;;0.05;0.05;;;8.10;99.90;;;;;;5087828;28;20044;-84
2021/11/06 06:26:37;;;;;;;0.00;0.00;;;8.10;99.90;;;;;;5120829;28;20415;-84
2021/11/06 06:29:03;;;;;;;0.10;0.10;;;8.10;99.90;;;;;;5087009;28;20044;-84
2021/11/06 06:31:30;;;;;;;0.00;0.00;;;8.20;99.90;;;;;;5071278;28;20048;-84
2021/11/06 06:33:57;;;;;;;0.10;0.10;;;8.20;99.90;;;;;;5070944;28;20398;-84
2021/11/06 06:36:23;;;;;;;0.10;0.10;;;8.20;99.90;;;;;;5054882;28;20483;-82
2021/11/06 06:38:50;;;;;;;0.10;0.10;;;8.20;99.90;;;;;;5054035;28;20503;-84
2021/11/06 06:41:17;;;;;;;0.10;0.10;;;8.30;99.90;;;;;;5087189;28;20059;-84
2021/11/06 06:43:43;;;;;;;0.10;0.10;;;8.30;99.90;;;;;;5070512;28;20068;-82
2021/11/06 06:46:10;;;;;;;0.10;0.10;;;8.30;99.90;;;;;;5086939;28;20048;-84
2021/11/06 06:48:37;;;;;;;0.10;0.10;;;8.30;99.90;;;;;;5086963;28;20100;-84
2021/11/06 06:51:03;;;;;;;0.00;0.00;;;8.30;99.90;;;;;;5086554;28;20047;-84
2021/11/06 06:53:30;;;;;;;0.00;0.00;;;8.30;99.90;;;;;;5054436;28;20033;-82
2021/11/06 06:55:57;;;;;;;0.10;0.10;;;8.30;99.90;;;;;;5086703;28;20056;-84
2021/11/06 06:58:24;;;;;;;0.00;0.00;;;8.40;99.90;;;;;;5055362;28;20041;-85
2021/11/06 07:00:51;;;;;;;0.10;0.10;;;8.30;99.90;;;;;;5090901;28;20049;-82
2021/11/06 07:03:18;;;;;;;0.00;0.00;;;8.40;99.90;;;;;;5069953;28;20039;-85
2021/11/06 07:05:45;;;;;;;0.05;0.05;;;8.40;99.90;;;;;;5054064;28;20079;-82
2021/11/06 07:08:11;;;;;;;0.00;0.00;;;8.40;99.90;;;;;;5089163;28;20076;-81
2021/11/06 07:10:38;;;;;;;0.00;0.00;;;8.40;99.90;;;;;;5070245;28;20037;-82
2021/11/06 07:13:05;;;;;;;0.00;0.00;;;8.40;99.90;;;;;;5069983;28;20041;-82
2021/11/06 07:15:32;;;;;;;0.00;0.00;;;8.40;99.90;;;;;;5070845;28;20048;-82
2021/11/06 07:18:00;;;;;;;0.00;0.00;;;8.40;99.90;;;;;;5069881;28;20064;-82
2021/11/06 07:20:27;;;;;;;0.00;0.00;;;8.40;99.90;;;;;;5053484;28;20049;-85
2021/11/06 07:22:54;;;;;;;0.10;0.10;;;8.40;99.90;;;;;;5129422;28;20047;-84
2021/11/06 07:25:21;;;;;;;0.00;0.00;;;8.40;99.90;;;;;;5079907;28;20045;-82
2021/11/06 07:27:48;;;;;;;0.08;0.08;;;8.50;99.90;;;;;;5070004;28;20033;-84
2021/11/06 07:30:14;;;;;;;0.25;0.17;;;8.50;99.90;;;;;;5086484;28;20957;-85
2021/11/06 07:32:41;;;;;;;0.10;0.10;;;8.50;99.90;;;;;;5071839;28;20059;-85
2021/11/06 07:35:08;;;;;;;0.40;0.40;;;8.50;99.90;;;;;;5106703;28;20378;-85
2021/11/06 07:37:36;;;;;;;0.00;0.00;;;8.50;99.90;;;;;;5117657;28;20405;-82
2021/11/06 07:40:06;;;;;;;0.15;0.15;;;8.50;99.90;;;;;;5089938;28;20041;-85
2021/11/06 07:42:32;;;;;;;0.00;0.00;;;8.50;99.90;;;;;;5097602;28;20098;-85
2021/11/06 07:44:59;;;;;;;0.08;0.08;;;8.60;99.90;;;;;;5088032;28;20037;-82
2021/11/06 07:47:26;;;;;;;0.10;0.10;;;8.50;99.90;;;;;;5106136;28;20044;-82
2021/11/06 07:49:53;;;;;;;0.00;0.00;;;8.60;99.90;;;;;;5097380;28;20040;-84
2021/11/06 07:52:20;;;;;;;0.10;0.10;;;8.60;99.90;;;;;;5086083;28;20135;-84
2021/11/06 07:54:46;;;;;;;0.08;0.08;;;8.60;99.90;;;;;;5088921;28;20091;-84
2021/11/06 07:57:13;;;;;;;0.00;0.00;;;8.60;99.90;;;;;;5085591;28;20054;-82
2021/11/06 07:59:41;;;;;;;0.00;0.00;;;8.60;99.90;;;;;;5052936;28;20099;-82
2021/11/06 08:02:08;;;;;;;0.10;0.10;;;8.60;99.90;;;;;;5069209;28;20041;-82
2021/11/06 08:04:35;;;;;;;0.00;0.00;;;8.60;99.90;;;;;;5062015;28;20068;-85
2021/11/06 08:07:02;;;;;;;0.00;0.00;;;8.60;99.90;;;;;;5101693;28;20068;-85
2021/11/06 08:09:29;;;;;;;0.08;0.08;;;8.60;99.90;;;;;;5088485;28;20068;-86
2021/11/06 08:11:56;;;;;;;0.00;0.00;;;8.60;99.90;;;;;;5072664;28;20044;-82
2021/11/06 08:14:23;;;;;;;0.00;0.00;;;8.60;99.90;;;;;;5088672;28;20492;-82
2021/11/06 08:16:55;;;;;;;0.00;0.00;;;8.60;99.90;;;;;;5088998;28;20047;-82
2021/11/06 08:19:23;;;;;;;0.00;0.00;;;8.60;99.90;;;;;;5077390;28;20045;-82
2021/11/06 08:21:51;;;;;;;0.10;0.10;;;8.70;99.90;;;;;;5099782;28;20044;-82
2021/11/06 08:24:19;;;;;;;0.10;0.10;;;8.70;99.90;;;;;;5072493;28;20048;-82
2021/11/06 08:26:47;;;;;;;0.00;0.00;;;8.80;99.90;;;;;;5056190;28;20040;-82
2021/11/06 08:29:14;;;;;;;0.00;0.00;;;8.80;99.90;;;;;;5088891;28;20040;-86
2021/11/06 08:31:41;;;;;;;0.00;0.00;;;8.80;99.90;;;;;;5073135;28;20093;-82
2021/11/06 08:34:07;;;;;;;0.00;0.00;;;8.80;99.90;;;;;;5088668;28;20036;-82
2021/11/06 08:36:35;;;;;;;0.05;0.05;;;8.90;99.90;;;;;;5056449;28;20036;-85
2021/11/06 08:39:07;;;;;;;0.00;0.00;;;8.80;99.90;;;;;;5089392;28;20421;-82
2021/11/06 08:41:34;;;;;;;0.10;0.10;;;8.90;99.90;;;;;;5118380;28;20047;-82
2021/11/06 08:44:01;;;;;;;0.00;0.00;;;8.80;99.90;;;;;;5073186;28;20054;-85
2021/11/06 08:46:28;;;;;;;0.08;0.08;;;8.80;99.90;;;;;;5088771;28;20044;-82
2021/11/06 08:48:54;;;;;;;0.47;0.40;;;8.80;99.90;;;;;;5102723;28;20550;-86
2021/11/06 08:51:21;;;;;;;0.00;0.00;;;8.80;99.90;;;;;;5092541;28;20045;-83
2021/11/06 08:53:49;;;;;;;0.10;0.10;;;8.80;99.90;;;;;;5126464;28;20033;-82
2021/11/06 08:56:16;;;;;;;0.03;0.03;;;8.80;99.90;;;;;;5108841;28;20475;-82
2021/11/06 08:58:44;;;;;;;0.00;0.00;;;8.80;99.90;;;;;;5109241;28;20040;-82
2021/11/06 09:01:12;;;;;;;0.00;0.00;;;8.80;99.90;;;;;;5109119;28;20036;-84
2021/11/06 09:03:38;;;;;;;0.00;0.00;;;8.80;99.90;;;;;;5109617;28;20039;-82
2021/11/06 09:06:05;;;;;;;0.00;0.00;;;8.80;99.90;;;;;;5092755;28;20485;-85
2021/11/06 09:08:35;;;;;;;0.10;0.10;;;8.80;99.90;;;;;;5105374;28;20462;-85
2021/11/06 09:11:06;;;;;;;0.10;0.10;;;8.80;99.90;;;;;;5086250;28;20120;-83
2021/11/06 09:13:33;;;;;;;0.00;0.00;;;8.80;99.90;;;;;;5109628;28;20447;-81
2021/11/06 09:16:03;;;;;;;0.00;0.00;;;8.80;99.90;;;;;;5126330;28;20127;-82
2021/11/06 09:18:30;;;;;;;0.00;0.00;;;8.80;99.90;;;;;;5092789;28;20041;-87
2021/11/06 09:20:57;;;;;;;0.20;0.13;;;8.80;99.90;;;;;;5093239;28;20037;-85
2021/11/06 09:23:24;;;;;;;0.00;0.00;;;8.90;99.90;;;;;;5093064;28;20097;-86
2021/11/06 09:25:51;;;;;;;0.10;0.10;;;8.90;99.90;;;;;;5093063;28;20145;-88
2021/11/06 09:28:18;;;;;;;0.00;0.00;;;8.80;99.90;;;;;;5076495;28;20035;-84
2021/11/06 09:30:46;;;;;;;0.10;0.10;;;8.90;99.90;;;;;;5076588;28;20489;-84
2021/11/06 09:33:13;;;;;;;0.10;0.10;;;8.90;99.90;;;;;;5076643;28;20045;-84
2021/11/06 09:35:39;;;;;;;0.00;0.00;;;9.00;99.90;;;;;;5076497;28;20507;-84
2021/11/06 09:38:06;;;;;;;0.08;0.08;;;9.00;99.90;;;;;;5076137;28;20055;-84
2021/11/06 09:40:33;;;;;;;0.00;0.00;;;9.00;99.90;;;;;;5059010;28;20044;-88
2021/11/06 09:43:00;;;;;;;0.28;0.25;;;9.00;99.90;;;;;;5059970;28;20040;-88
2021/11/06 09:45:27;;;;;;;0.00;0.00;;;9.00;99.90;;;;;;5059569;28;20075;-88
2021/11/06 09:47:54;;;;;;;0.10;0.10;;;9.00;99.90;;;;;;5076301;28;20032;-88
2021/11/06 09:50:22;;;;;;;1.08;0.17;;;9.00;99.90;;;;;;5077269;28;20052;-84
2021/11/06 09:52:51;;;;;;;0.10;0.10;;;9.00;99.90;;;;;;5106750;28;20033;-88
2021/11/06 09:55:20;;;;;;;0.10;0.10;;;9.10;99.90;;;;;;5099272;28;20501;-88
2021/11/06 09:57:51;;;;;;;0.00;0.00;;;9.10;99.90;;;;;;5076430;28;20059;-84
2021/11/06 10:00:19;;;;;;;0.30;0.30;;;9.20;99.90;;;;;;5091845;28;20083;-87
2021/11/06 10:02:48;;;;;;;0.08;0.08;;;9.20;99.90;;;;;;5075196;28;20052;-88
2021/11/06 10:05:15;;;;;;;0.28;0.25;;;9.20;99.90;;;;;;5091884;28;20074;-84
2021/11/06 10:07:43;;;;;;;0.10;0.10;;;9.20;99.90;;;;;;5075795;28;20189;-88
2021/11/06 10:10:15;;;;;;;0.00;0.00;;;9.30;99.90;;;;;;5076445;28;20052;-88
2021/11/06 10:12:48;;;;;;;0.00;0.00;;;9.40;99.90;;;;;;5075983;28;20047;-88
2021/11/06 10:15:18;;;;;;;0.03;0.03;;;9.40;99.90;;;;;;5092130;28;20040;-88
2021/11/06 10:17:45;;;;;;;0.00;0.00;;;9.50;99.90;;;;;;5075935;28;20036;-83
2021/11/06 10:20:28;;;;;;;0.10;0.10;;;9.50;99.90;;;;;;5090000;28;20632;-83
2021/11/06 10:23:02;;;;;;;0.10;0.10;;;9.60;99.90;;;;;;5091935;28;20048;-88
2021/11/06 10:25:29;;;;;;;0.00;0.00;;;9.70;99.90;;;;;;5125679;28;20044;-88
2021/11/06 10:28:07;;;;;;;0.20;0.20;;;9.70;99.90;;;;;;5091428;28;20146;-84
2021/11/06 10:30:39;;;;;;;0.00;0.00;;;9.70;99.90;;;;;;5124457;28;20047;-79
2021/11/06 10:33:15;;;;;;;0.30;0.30;;;9.80;99.90;;;;;;5091246;28;20048;-86
2021/11/06 10:35:51;;;;;;;0.10;0.10;;;9.80;99.90;;;;;;5124681;28;20481;-87
2021/11/06 10:38:25;;;;;;;0.05;0.05;;;9.80;99.90;;;;;;5091722;28;20041;-83
2021/11/06 10:41:02;;;;;;;0.00;0.00;;;9.80;99.90;;;;;;5122048;28;20044;-87
2021/11/06 10:43:32;;;;;;;0.00;0.00;;;9.80;99.90;;;;;;5104047;28;20052;-83
2021/11/06 10:46:01;;;;;;;0.10;0.10;;;9.80;99.90;;;;;;5087358;28;20098;-86
2021/11/06 10:48:31;;;;;;;0.00;0.00;;;9.80;99.90;;;;;;5103628;28;20510;-82
2021/11/06 10:51:18;;;;;;;1.17;0.50;;;9.80;99.90;;;;;;5103830;28;20037;-81
2021/11/06 10:53:53;;;;;;;0.00;0.00;;;9.80;99.90;;;;;;5128128;28;20469;-81
2021/11/06 10:56:42;;;;;;;;;;;9.80;99.90;;;;;;5121584;28;20084;-86
2021/11/06 10:59:14;;;;;;;0.00;0.00;;;9.80;99.90;;;;;;5107647;28;19921;-80
2021/11/06 11:01:44;;;;;;;0.17;0.17;;;9.90;99.90;;;;;;5123607;28;20040;-81
2021/11/06 11:04:15;;;;;;;0.00;0.00;;;9.90;99.90;;;;;;5124223;28;20480;-81
2021/11/06 11:06:48;;;;;;;0.00;0.00;;;9.90;99.90;;;;;;5123180;28;20040;-80
2021/11/06 11:09:26;;;;;;;0.00;0.00;;;10.00;99.90;;;;;;5107204;28;20123;-87
2021/11/06 11:11:54;;;;;;;0.00;0.00;;;10.10;99.90;;;;;;5091334;28;20029;-86
2021/11/06 11:14:24;;;;;;;0.10;0.10;;;10.10;99.90;;;;;;5106274;28;20094;-80
2021/11/06 11:17:03;;;;;;;0.00;0.00;;;10.20;99.90;;;;;;5090340;28;20550;-81
2021/11/06 11:19:34;;;;;;;0.10;0.10;;;10.20;99.90;;;;;;5079570;28;20103;-86
2021/11/06 11:22:02;;;;;;;0.00;0.00;;;10.30;99.90;;;;;;5112292;28;20070;-80
2021/11/06 11:24:29;;;;;;;0.00;0.00;;;10.30;99.90;;;;;;5100619;28;20459;-81
2021/11/06 11:26:57;;;;;;;0.10;0.10;;;10.40;99.90;;;;;;5102197;28;20043;-81
2021/11/06 11:29:29;;;;;;;0.10;0.10;;;10.40;99.90;;;;;;5082173;28;20040;-86
2021/11/06 11:31:57;;;;;;;0.00;0.00;;;10.40;99.90;;;;;;5103869;28;20037;-80
2021/11/06 11:34:24;;;;;;;0.13;0.13;;;10.50;99.90;;;;;;5100563;28;20115;-85
2021/11/06 11:36:53;;;;;;;0.10;0.10;;;10.40;99.90;;;;;;5069935;28;20132;-87
2021/11/06 11:39:23;;;;;;;0.00;0.00;;;10.40;99.90;;;;;;5093557;28;20040;-86
2021/11/06 11:42:19;;;;;;;0.20;0.20;;;10.40;99.90;;;;;;5103360;28;20855;-85
2021/11/06 11:44:52;;;;;;;0.00;0.00;;;10.50;99.90;;;;;;5082779;28;20084;-86
2021/11/06 11:47:40;;;;;;;0.00;0.00;;;10.50;99.90;;;;;;5123624;28;20053;-81
2021/11/06 11:50:30;;;;;;;0.00;0.00;;;10.50;99.90;;;;;;5123519;28;20516;-86
2021/11/06 11:52:59;;;;;;;0.10;0.10;;;10.40;99.90;;;;;;5123248;28;20070;-81
2021/11/06 11:55:31;;;;;;;0.10;0.10;;;10.40;99.90;;;;;;5114748;28;20057;-81
2021/11/06 11:58:12;;;;;;;0.10;0.10;;;10.40;99.90;;;;;;5103349;28;20052;-86
2021/11/06 12:00:44;;;;;;;0.03;0.03;;;10.40;99.90;;;;;;5086247;28;20059;-86
2021/11/06 12:03:11;;;;;;;0.00;0.00;;;10.40;99.90;;;;;;5094712;28;20080;-86
2021/11/06 12:05:43;;;;;;;0.20;0.20;;;10.40;99.90;;;;;;5073545;28;20047;-86
2021/11/06 12:08:10;;;;;;;0.00;0.00;;;10.50;99.90;;;;;;5119247;28;20659;-87
2021/11/06 12:10:47;;;;;;;0.00;0.00;;;10.40;99.90;;;;;;5089264;28;20128;-81
2021/11/06 12:13:30;;;;;;;0.10;0.10;;;10.40;99.90;;;;;;5084468;28;20037;-81
2021/11/06 12:16:08;;;;;;;0.00;0.00;;;10.40;99.90;;;;;;5086162;28;20037;-86
2021/11/06 12:18:35;;;;;;;0.28;0.28;;;10.40;99.90;;;;;;5083086;28;20505;-80
2021/11/06 12:21:25;;;;;;;0.00;0.00;;;10.40;99.90;;;;;;5116501;28;20040;-90
2021/11/06 12:24:18;;;;;;;0.00;0.00;;;10.40;99.90;;;;;;5069677;28;20047;-82
2021/11/06 12:26:48;;;;;;;0.00;0.00;;;10.50;99.90;;;;;;5111762;28;20044;-82
2021/11/06 12:29:17;;;;;;;0.00;0.00;;;10.50;99.90;;;;;;5107834;28;20036;-82
2021/11/06 12:31:46;;;;;;;0.00;0.00;;;10.50;99.90;;;;;;5127049;28;20036;-82
2021/11/06 12:34:40;;;;;;;0.00;0.00;;;10.50;99.90;;;;;;5094265;28;20083;-88
2021/11/06 12:37:09;;;;;;;0.00;0.00;;;10.50;99.90;;;;;;5115295;28;20470;-90
2021/11/06 12:39:48;;;;;;;0.00;0.00;;;10.50;99.90;;;;;;5090845;28;20047;-88
2021/11/06 12:42:21;;;;;;;0.10;0.10;;;10.60;99.90;;;;;;5117420;28;20075;-89
2021/11/06 12:44:55;;;;;;;0.10;0.10;;;10.60;99.90;;;;;;5089104;28;20044;-82
2021/11/06 12:47:23;;;;;;;0.00;0.00;;;10.50;99.90;;;;;;5073897;28;20033;-85
2021/11/06 12:49:51;;;;;;;0.40;0.40;;;10.60;99.90;;;;;;5072921;28;20412;-82
2021/11/06 12:52:20;;;;;;;0.80;0.30;;;10.60;99.90;;;;;;5089788;28;20063;-82
2021/11/06 12:54:48;;;;;;;0.03;0.03;;;10.60;99.90;;;;;;5073338;28;20037;-89
2021/11/06 12:57:37;;;;;;;0.00;0.00;;;10.60;99.90;;;;;;5073283;28;20082;-89
2021/11/06 13:00:07;;;;;;;0.05;0.05;;;10.60;99.90;;;;;;5073578;28;20053;-89
2021/11/06 13:02:49;;;;;;;0.00;0.00;;;10.60;99.90;;;;;;5107254;28;20573;-82